Time;durP1;ratioP1;P1;durP2;ratioP2;P2;SDS_P1;SDS_P2;PMS_P1;PMS_P2;Temp;Humidity;BMP_temperature;BMP_pressure;BME280_temperature;BME280_humidity;BME280_pressure;Samples;Min_cycle;Max_cycle;Signal;HPM_P1;HPM_P2
2021/04/03 00:00:38;;;;;;;3.38;1.52;;;18.00;51.90;;;;;;4880936;29;20795;-65
2021/04/03 00:03:04;;;;;;;4.10;1.67;;;18.00;51.80;;;;;;4848649;29;20181;-66
2021/04/03 00:05:30;;;;;;;2.55;1.50;;;18.00;51.90;;;;;;4848750;29;20173;-66
2021/04/03 00:07:56;;;;;;;2.95;1.45;;;18.00;51.80;;;;;;4880865;29;20647;-70
2021/04/03 00:10:27;;;;;;;2.28;1.38;;;17.90;51.80;;;;;;4880136;29;20169;-67
2021/04/03 00:12:53;;;;;;;2.30;1.33;;;17.90;51.80;;;;;;4880755;29;20169;-67
2021/04/03 00:15:18;;;;;;;1.80;1.15;;;17.90;51.90;;;;;;4848199;29;20181;-67
2021/04/03 00:17:44;;;;;;;2.80;1.65;;;17.90;51.90;;;;;;4864284;29;20178;-68
2021/04/03 00:20:12;;;;;;;2.67;1.52;;;17.90;51.90;;;;;;4880396;29;20188;-66
2021/04/03 00:22:37;;;;;;;3.53;1.70;;;17.90;51.90;;;;;;4863318;29;20185;-66
2021/04/03 00:25:04;;;;;;;2.05;1.40;;;17.90;51.90;;;;;;4880586;29;20280;-67
2021/04/03 00:27:29;;;;;;;2.13;1.48;;;17.90;51.90;;;;;;4848399;29;20217;-65
2021/04/03 00:29:55;;;;;;;2.80;1.30;;;17.90;51.80;;;;;;4879899;29;20591;-65
2021/04/03 00:32:20;;;;;;;3.10;1.48;;;17.80;52.40;;;;;;4880368;29;20204;-71
2021/04/03 00:34:46;;;;;;;2.55;1.30;;;17.80;51.70;;;;;;4863876;29;20173;-68
2021/04/03 00:37:12;;;;;;;3.95;1.38;;;17.80;51.90;;;;;;4863387;29;20186;-69
2021/04/03 00:39:37;;;;;;;1.75;1.40;;;17.80;51.80;;;;;;4848254;29;20238;-66
2021/04/03 00:42:15;;;;;;;2.97;1.50;;;17.80;51.80;;;;;;4863741;29;20620;-66
2021/04/03 00:44:44;;;;;;;2.03;1.40;;;17.80;51.80;;;;;;4863048;29;20173;-65
2021/04/03 00:47:09;;;;;;;3.20;1.50;;;17.80;51.80;;;;;;4848482;29;20241;-74
2021/04/03 00:49:35;;;;;;;1.92;1.20;;;17.80;51.80;;;;;;4880132;29;20236;-64
2021/04/03 00:52:07;;;;;;;3.50;1.60;;;17.80;51.80;;;;;;4879671;29;20177;-73
2021/04/03 00:54:32;;;;;;;2.88;1.30;;;17.80;51.80;;;;;;4863276;29;20580;-73
2021/04/03 00:56:58;;;;;;;2.72;1.50;;;17.80;51.90;;;;;;4880104;29;20245;-68
2021/04/03 00:59:23;;;;;;;2.85;1.40;;;17.70;51.80;;;;;;4862779;29;20610;-67
2021/04/03 01:01:49;;;;;;;2.80;1.27;;;17.80;51.80;;;;;;4863341;29;20233;-65
2021/04/03 01:04:15;;;;;;;2.33;1.65;;;17.70;51.80;;;;;;4863470;29;20189;-66
2021/04/03 01:06:40;;;;;;;2.97;1.40;;;17.70;51.90;;;;;;4847154;29;20220;-68
2021/04/03 01:09:06;;;;;;;3.13;1.70;;;17.70;51.80;;;;;;4865055;29;20261;-69
2021/04/03 01:11:31;;;;;;;2.35;1.35;;;17.70;51.80;;;;;;4847004;29;20181;-68
2021/04/03 01:14:20;;;;;;;1.98;1.13;;;17.70;51.80;;;;;;4847731;29;20184;-68
2021/04/03 01:17:03;;;;;;;2.13;1.30;;;17.70;51.80;;;;;;4851427;29;20197;-68
2021/04/03 01:19:31;;;;;;;3.85;1.48;;;17.70;52.40;;;;;;4848554;29;20205;-68
2021/04/03 01:22:04;;;;;;;3.22;1.40;;;17.70;51.80;;;;;;4879552;29;20181;-66
2021/04/03 01:24:57;;;;;;;2.22;1.38;;;17.70;51.80;;;;;;4863255;29;20674;-66
2021/04/03 01:27:23;;;;;;;1.67;1.20;;;17.70;51.90;;;;;;4862213;29;20208;-67
2021/04/03 01:30:13;;;;;;;2.30;1.52;;;17.70;51.80;;;;;;4862804;29;20272;-66
2021/04/03 01:32:41;;;;;;;3.20;1.70;;;17.70;51.80;;;;;;4861402;29;20181;-67
2021/04/03 01:35:13;;;;;;;3.47;1.52;;;17.70;52.40;;;;;;4879354;29;20180;-68
2021/04/03 01:37:46;;;;;;;2.22;1.33;;;17.70;51.80;;;;;;4832683;29;20185;-67
2021/04/03 01:40:13;;;;;;;3.03;1.40;;;17.60;51.70;;;;;;4847709;29;20189;-67
2021/04/03 01:42:39;;;;;;;3.00;1.30;;;17.60;51.70;;;;;;4847403;29;20237;-66
2021/04/03 01:45:05;;;;;;;1.55;1.13;;;17.60;52.40;;;;;;4847490;29;20177;-66
2021/04/03 01:47:31;;;;;;;1.63;1.20;;;17.60;51.70;;;;;;4877223;29;20209;-66
2021/04/03 01:49:57;;;;;;;1.42;1.13;;;17.60;51.80;;;;;;4832244;29;20544;-65
2021/04/03 01:52:24;;;;;;;1.60;1.13;;;17.60;51.70;;;;;;4862624;29;20261;-65
2021/04/03 01:54:51;;;;;;;2.88;1.40;;;17.60;51.70;;;;;;4846543;29;20512;-66
2021/04/03 01:57:17;;;;;;;2.60;1.25;;;17.60;51.70;;;;;;4847515;29;20268;-68
2021/04/03 01:59:43;;;;;;;2.50;1.42;;;17.60;51.80;;;;;;4862261;29;20750;-68
2021/04/03 02:02:08;;;;;;;2.13;1.30;;;17.60;51.80;;;;;;4861755;29;20177;-67
2021/04/03 02:04:34;;;;;;;2.80;1.30;;;17.60;51.70;;;;;;4846926;29;20626;-67
2021/04/03 02:06:59;;;;;;;4.25;1.67;;;17.60;51.70;;;;;;4846864;29;20297;-67
2021/04/03 02:09:25;;;;;;;2.72;1.27;;;17.60;51.70;;;;;;4845237;29;20276;-70
2021/04/03 02:11:51;;;;;;;2.92;1.52;;;17.60;51.70;;;;;;4862226;29;20196;-68
2021/04/03 02:14:16;;;;;;;3.10;1.30;;;17.50;51.70;;;;;;4877905;29;20181;-68
2021/04/03 02:16:42;;;;;;;2.45;1.35;;;17.50;51.70;;;;;;4861400;29;20185;-75
2021/04/03 02:19:09;;;;;;;3.30;1.73;;;17.50;51.70;;;;;;4877691;29;20181;-67
2021/04/03 02:21:35;;;;;;;2.17;1.10;;;17.50;51.70;;;;;;4877481;29;20265;-67
2021/04/03 02:24:01;;;;;;;2.78;1.75;;;17.50;51.70;;;;;;4878147;29;20619;-66
2021/04/03 02:26:31;;;;;;;2.67;1.38;;;17.50;51.70;;;;;;4877397;29;20296;-66
2021/04/03 02:28:56;;;;;;;2.45;1.27;;;17.50;51.70;;;;;;4877128;29;20215;-70
2021/04/03 02:31:22;;;;;;;2.05;1.40;;;17.50;51.80;;;;;;4877285;29;20217;-66
2021/04/03 02:33:48;;;;;;;2.67;1.50;;;17.50;51.70;;;;;;4878680;29;20179;-67
2021/04/03 02:36:13;;;;;;;2.67;1.73;;;17.50;51.70;;;;;;4877311;29;20245;-69
2021/04/03 02:38:39;;;;;;;2.42;1.35;;;17.50;51.70;;;;;;4878564;29;20181;-70
2021/04/03 02:41:07;;;;;;;3.58;1.60;;;17.50;52.30;;;;;;4877554;29;20169;-67
2021/04/03 02:44:11;;;;;;;2.88;1.33;;;17.50;51.70;;;;;;4861599;29;20233;-67
2021/04/03 02:46:50;;;;;;;2.55;1.60;;;17.50;51.80;;;;;;4882344;29;20219;-66
2021/04/03 02:49:47;;;;;;;2.45;1.60;;;17.40;51.70;;;;;;4881430;29;20252;-66
2021/04/03 02:52:12;;;;;;;3.70;1.52;;;17.40;51.70;;;;;;4861393;29;20196;-66
2021/04/03 02:54:38;;;;;;;3.97;1.45;;;17.50;51.70;;;;;;4880810;29;20181;-73
2021/04/03 02:57:04;;;;;;;2.20;1.38;;;17.40;51.70;;;;;;4880514;29;20638;-67
2021/04/03 02:59:32;;;;;;;2.60;1.40;;;17.40;51.80;;;;;;4880812;29;20185;-68
2021/04/03 03:01:59;;;;;;;2.35;1.33;;;17.40;51.70;;;;;;4881112;29;20188;-66
2021/04/03 03:04:25;;;;;;;2.13;1.25;;;17.40;51.80;;;;;;4880192;29;20225;-70
2021/04/03 03:06:50;;;;;;;2.45;1.35;;;17.40;51.70;;;;;;4880873;29;20205;-68
2021/04/03 03:09:17;;;;;;;2.08;1.40;;;17.40;51.80;;;;;;4880704;29;20308;-71
2021/04/03 03:11:47;;;;;;;3.25;1.33;;;17.40;51.70;;;;;;4879948;29;20185;-71
2021/04/03 03:14:14;;;;;;;2.53;1.25;;;17.40;51.80;;;;;;4880850;29;20182;-68
2021/04/03 03:16:40;;;;;;;2.47;1.70;;;17.40;51.70;;;;;;4880722;29;20174;-68
2021/04/03 03:19:08;;;;;;;2.35;1.40;;;17.40;51.80;;;;;;4880076;29;20209;-74
2021/04/03 03:21:34;;;;;;;2.45;1.40;;;17.30;51.70;;;;;;4880519;29;20721;-71
2021/04/03 03:24:00;;;;;;;1.58;1.10;;;17.30;51.70;;;;;;4880353;29;20706;-68
2021/04/03 03:26:26;;;;;;;2.33;1.27;;;17.40;51.70;;;;;;4880919;29;20212;-67
2021/04/03 03:28:51;;;;;;;2.67;1.35;;;17.30;51.60;;;;;;4880578;29;20185;-65
2021/04/03 03:31:17;;;;;;;1.33;1.08;;;17.30;51.70;;;;;;4880572;29;20607;-67
2021/04/03 03:33:42;;;;;;;1.98;1.23;;;17.30;51.70;;;;;;4879681;29;20170;-67
2021/04/03 03:36:08;;;;;;;2.30;1.38;;;17.30;51.80;;;;;;4880353;29;20265;-68
2021/04/03 03:38:34;;;;;;;2.97;1.20;;;17.30;51.70;;;;;;4880198;29;20212;-68
2021/04/03 03:41:00;;;;;;;2.25;1.30;;;17.30;51.70;;;;;;4879644;29;20260;-67
2021/04/03 03:43:25;;;;;;;2.67;1.30;;;17.30;51.70;;;;;;4880094;29;20255;-69
2021/04/03 03:45:51;;;;;;;3.10;1.17;;;17.30;51.70;;;;;;4880117;29;20265;-71
2021/04/03 03:48:17;;;;;;;4.07;1.40;;;17.30;51.70;;;;;;4879718;29;20216;-66
2021/04/03 03:50:42;;;;;;;3.08;1.50;;;17.30;52.30;;;;;;4879962;29;20170;-74
2021/04/03 03:53:08;;;;;;;1.67;1.20;;;17.20;51.70;;;;;;4880162;29;20199;-66
2021/04/03 03:55:34;;;;;;;3.38;1.48;;;17.30;51.70;;;;;;4878203;29;20268;-69
2021/04/03 03:57:59;;;;;;;3.03;1.50;;;17.20;51.60;;;;;;4880086;29;20260;-67
2021/04/03 04:00:25;;;;;;;3.95;1.40;;;17.20;51.70;;;;;;4879362;29;20181;-67
2021/04/03 04:02:50;;;;;;;2.47;1.38;;;17.20;51.60;;;;;;4880999;29;20589;-71
2021/04/03 04:05:16;;;;;;;2.40;1.52;;;17.20;51.60;;;;;;4864395;29;20240;-68
2021/04/03 04:07:42;;;;;;;3.03;2.00;;;17.20;51.60;;;;;;4879979;29;20268;-67
2021/04/03 04:10:08;;;;;;;2.38;1.30;;;17.20;51.70;;;;;;4880949;29;20545;-68
2021/04/03 04:12:34;;;;;;;1.25;1.00;;;17.20;51.70;;;;;;4864294;29;20177;-69
2021/04/03 04:15:00;;;;;;;2.67;1.20;;;17.20;51.70;;;;;;4848186;29;20252;-68
2021/04/03 04:17:25;;;;;;;2.35;1.30;;;17.20;51.60;;;;;;4864386;29;20169;-68
2021/04/03 04:19:51;;;;;;;1.55;1.17;;;17.20;51.70;;;;;;4864203;29;20233;-66
2021/04/03 04:22:17;;;;;;;2.92;1.50;;;17.20;51.70;;;;;;4848159;29;20222;-71
2021/04/03 04:24:42;;;;;;;3.95;1.80;;;17.20;51.70;;;;;;4848415;29;20187;-72
2021/04/03 04:27:09;;;;;;;5.03;1.50;;;17.20;51.70;;;;;;4863909;29;20224;-66
2021/04/03 04:29:35;;;;;;;4.20;1.70;;;17.10;51.60;;;;;;4863314;29;20169;-66
2021/04/03 04:32:02;;;;;;;2.45;1.25;;;17.10;51.60;;;;;;4880567;29;20170;-72
2021/04/03 04:34:27;;;;;;;2.30;1.27;;;17.10;51.60;;;;;;4880414;29;20196;-68
2021/04/03 04:36:53;;;;;;;2.33;1.55;;;17.10;51.60;;;;;;4880157;29;20185;-68
2021/04/03 04:39:18;;;;;;;3.30;1.40;;;17.10;51.60;;;;;;4880400;29;20181;-67
2021/04/03 04:41:44;;;;;;;2.65;1.50;;;17.10;51.60;;;;;;4863623;29;20562;-65
2021/04/03 04:44:09;;;;;;;3.75;1.40;;;17.10;51.60;;;;;;4863120;29;20649;-66
2021/04/03 04:46:35;;;;;;;3.85;2.08;;;17.10;51.60;;;;;;4880228;29;20625;-66
2021/04/03 04:49:01;;;;;;;2.58;1.30;;;17.10;51.60;;;;;;4880376;29;20173;-65
2021/04/03 04:51:26;;;;;;;1.83;1.23;;;17.10;51.60;;;;;;4879474;29;20173;-66
2021/04/03 04:53:52;;;;;;;4.63;1.80;;;17.10;51.70;;;;;;4863499;29;20208;-69
2021/04/03 04:56:17;;;;;;;2.65;1.40;;;17.10;51.60;;;;;;4863598;29;20185;-67
2021/04/03 04:58:43;;;;;;;3.58;1.48;;;17.10;51.60;;;;;;4862678;29;20317;-71
2021/04/03 05:01:08;;;;;;;3.38;1.63;;;17.10;51.60;;;;;;4863581;29;20638;-70
2021/04/03 05:03:34;;;;;;;2.45;1.65;;;17.00;51.50;;;;;;4862872;29;20203;-65
2021/04/03 05:06:00;;;;;;;2.03;1.00;;;17.00;51.60;;;;;;4847712;29;20209;-69
2021/04/03 05:08:25;;;;;;;2.70;1.60;;;17.10;51.60;;;;;;4879503;29;20231;-68
2021/04/03 05:10:51;;;;;;;2.55;1.50;;;17.10;51.50;;;;;;4879151;29;20547;-70
2021/04/03 05:13:17;;;;;;;2.75;1.40;;;17.10;51.40;;;;;;4879921;29;20301;-71
2021/04/03 05:15:42;;;;;;;3.72;1.52;;;17.10;51.40;;;;;;4879449;29;20268;-72
2021/04/03 05:18:08;;;;;;;3.92;1.65;;;17.20;51.50;;;;;;4862575;29;20181;-72
2021/04/03 05:20:33;;;;;;;3.25;1.40;;;17.30;51.50;;;;;;4879543;29;20634;-72
2021/04/03 05:22:59;;;;;;;1.27;1.10;;;17.40;51.20;;;;;;4862928;29;20181;-68
2021/04/03 05:25:24;;;;;;;3.35;1.60;;;17.60;51.10;;;;;;4862202;29;20184;-67
2021/04/03 05:27:50;;;;;;;2.45;1.45;;;17.70;50.90;;;;;;4862936;29;20677;-65
2021/04/03 05:30:16;;;;;;;3.90;1.50;;;17.90;50.70;;;;;;4879492;29;20244;-67
2021/04/03 05:32:42;;;;;;;3.42;1.27;;;18.00;50.40;;;;;;4862104;29;20196;-66
2021/04/03 05:35:08;;;;;;;2.85;1.58;;;18.20;50.20;;;;;;4879313;29;20181;-71
2021/04/03 05:37:33;;;;;;;4.20;1.40;;;18.30;50.10;;;;;;4847478;29;20177;-68
2021/04/03 05:39:59;;;;;;;2.50;1.20;;;18.30;49.90;;;;;;4846748;29;20221;-66
2021/04/03 05:42:25;;;;;;;2.60;1.40;;;18.40;49.80;;;;;;4862449;29;20652;-66
2021/04/03 05:44:50;;;;;;;2.72;1.20;;;18.40;49.70;;;;;;4831910;29;20188;-65
2021/04/03 05:47:16;;;;;;;3.20;1.58;;;18.50;49.70;;;;;;4862129;29;20209;-74
2021/04/03 05:49:42;;;;;;;2.95;1.10;;;18.60;49.60;;;;;;4847082;29;20169;-66
2021/04/03 05:52:07;;;;;;;2.45;1.55;;;18.60;49.50;;;;;;4862591;29;20217;-71
2021/04/03 05:54:37;;;;;;;2.20;1.45;;;18.60;49.50;;;;;;4846378;29;20185;-72
2021/04/03 05:57:06;;;;;;;2.45;1.45;;;18.60;49.40;;;;;;4847289;29;20188;-66
2021/04/03 05:59:32;;;;;;;1.73;1.20;;;18.50;49.60;;;;;;4862240;29;20260;-67
2021/04/03 06:01:58;;;;;;;2.25;1.40;;;18.40;49.50;;;;;;4861922;29;20633;-71
2021/04/03 06:04:23;;;;;;;2.78;1.35;;;18.40;49.70;;;;;;4862212;29;20189;-71
2021/04/03 06:06:49;;;;;;;2.88;1.40;;;18.30;49.90;;;;;;4878924;29;20293;-70
2021/04/03 06:09:14;;;;;;;3.17;1.98;;;18.20;49.90;;;;;;4861610;29;20229;-69
2021/04/03 06:11:44;;;;;;;1.65;1.52;;;18.20;50.00;;;;;;4878802;29;20559;-70
2021/04/03 06:14:10;;;;;;;2.65;1.58;;;18.10;50.10;;;;;;4861860;29;20211;-67
2021/04/03 06:16:35;;;;;;;3.10;1.40;;;18.10;50.80;;;;;;4846743;29;20197;-68
2021/04/03 06:19:10;;;;;;;2.85;1.50;;;18.00;50.30;;;;;;4878367;29;20184;-67
2021/04/03 06:21:43;;;;;;;3.05;1.48;;;18.00;50.30;;;;;;4878023;29;20180;-66
2021/04/03 06:24:36;;;;;;;2.47;1.25;;;17.90;50.40;;;;;;4847247;29;20170;-72
2021/04/03 06:27:09;;;;;;;3.25;1.52;;;17.90;50.50;;;;;;4858400;29;20224;-66
2021/04/03 06:29:39;;;;;;;3.17;1.80;;;17.90;50.60;;;;;;4846357;29;20562;-64
2021/04/03 06:32:07;;;;;;;3.15;1.60;;;17.80;50.70;;;;;;4861900;29;20657;-70
2021/04/03 06:34:40;;;;;;;2.65;1.40;;;17.80;50.80;;;;;;4861810;29;20264;-69
2021/04/03 06:37:07;;;;;;;4.45;1.58;;;17.80;51.50;;;;;;4846336;29;20260;-68
2021/04/03 06:39:59;;;;;;;2.33;1.35;;;17.70;50.80;;;;;;4846829;29;20173;-68
2021/04/03 06:42:41;;;;;;;3.65;1.30;;;17.70;50.90;;;;;;4877804;29;20183;-67
2021/04/03 06:45:19;;;;;;;2.92;1.60;;;17.80;51.00;;;;;;4878607;29;20244;-68
2021/04/03 06:47:46;;;;;;;3.35;1.35;;;17.80;50.90;;;;;;4878548;29;20223;-71
2021/04/03 06:50:15;;;;;;;6.82;1.80;;;17.90;50.90;;;;;;4861425;29;20264;-76
2021/04/03 06:52:41;;;;;;;5.47;1.77;;;17.90;50.80;;;;;;4846834;29;20181;-62
2021/04/03 06:55:11;;;;;;;3.88;1.88;;;17.90;50.80;;;;;;4846508;29;20182;-62
2021/04/03 06:57:37;;;;;;;2.90;1.77;;;18.00;50.80;;;;;;4845508;29;20649;-70
2021/04/03 07:00:04;;;;;;;4.20;1.95;;;18.00;50.90;;;;;;4861857;29;20192;-72
2021/04/03 07:02:29;;;;;;;4.85;1.92;;;17.90;50.90;;;;;;4861563;29;20170;-70
2021/04/03 07:04:55;;;;;;;6.05;1.80;;;18.00;50.90;;;;;;4846049;29;20181;-69
2021/04/03 07:07:21;;;;;;;4.88;2.10;;;18.00;50.90;;;;;;4861401;29;20213;-70
2021/04/03 07:09:46;;;;;;;4.10;1.88;;;17.90;50.90;;;;;;4861880;29;20189;-67
2021/04/03 07:12:12;;;;;;;3.92;2.00;;;18.00;50.90;;;;;;4845827;29;20305;-61
2021/04/03 07:14:38;;;;;;;5.07;1.60;;;18.00;50.90;;;;;;4830714;29;20177;-70
2021/04/03 07:17:04;;;;;;;4.70;2.00;;;18.00;51.00;;;;;;4861722;29;20264;-61
2021/04/03 07:19:29;;;;;;;4.55;1.88;;;18.00;50.90;;;;;;4845439;29;20178;-70
2021/04/03 07:21:55;;;;;;;4.80;2.05;;;18.00;50.90;;;;;;4846275;29;20182;-61
2021/04/03 07:24:22;;;;;;;5.65;1.88;;;18.00;50.90;;;;;;4845467;29;20186;-61
2021/04/03 07:26:49;;;;;;;5.03;2.22;;;18.00;50.90;;;;;;4846363;29;20221;-61
2021/04/03 07:29:40;;;;;;;4.97;2.20;;;18.00;50.90;;;;;;4878398;29;20185;-64
2021/04/03 07:32:06;;;;;;;3.65;2.15;;;18.00;51.00;;;;;;4879917;29;20185;-63
2021/04/03 07:34:41;;;;;;;4.75;2.38;;;18.00;51.00;;;;;;4849350;29;20200;-63
2021/04/03 07:37:10;;;;;;;7.35;2.25;;;18.00;51.20;;;;;;4864744;29;20177;-73
2021/04/03 07:39:37;;;;;;;6.40;2.03;;;18.00;52.30;;;;;;4848709;29;20246;-68
2021/04/03 07:42:04;;;;;;;5.68;2.30;;;18.00;51.70;;;;;;4864677;29;20216;-72
2021/04/03 07:44:37;;;;;;;5.22;2.13;;;18.00;51.70;;;;;;4864365;29;20183;-67
2021/04/03 07:47:19;;;;;;;5.82;2.30;;;18.00;51.80;;;;;;4863988;29;20636;-69
2021/04/03 07:49:44;;;;;;;6.13;2.33;;;18.10;51.80;;;;;;4864869;29;20205;-76
2021/04/03 07:52:10;;;;;;;3.92;1.88;;;18.10;52.50;;;;;;4849379;29;20293;-75
2021/04/03 07:54:36;;;;;;;5.57;2.13;;;18.00;52.40;;;;;;4848598;29;20233;-75
2021/04/03 07:57:04;;;;;;;7.90;2.58;;;18.10;51.80;;;;;;4849234;29;20178;-71
2021/04/03 07:59:48;;;;;;;5.22;2.13;;;18.00;51.80;;;;;;4863913;29;20260;-68
2021/04/03 08:02:15;;;;;;;4.88;2.10;;;18.10;51.80;;;;;;4879911;29;20183;-69
2021/04/03 08:04:41;;;;;;;4.95;2.25;;;18.10;51.80;;;;;;4864230;29;20603;-68
2021/04/03 08:07:06;;;;;;;4.22;1.98;;;18.10;51.80;;;;;;4832986;29;20303;-68
2021/04/03 08:09:33;;;;;;;5.68;2.03;;;18.00;51.80;;;;;;4863993;29;20231;-70
2021/04/03 08:11:58;;;;;;;6.60;2.08;;;18.00;51.90;;;;;;4864140;29;20192;-71
2021/04/03 08:14:27;;;;;;;7.05;2.65;;;18.10;52.00;;;;;;4848038;29;20178;-68
2021/04/03 08:16:52;;;;;;;4.32;2.03;;;18.10;52.10;;;;;;4864326;29;20173;-71
2021/04/03 08:19:22;;;;;;;4.88;2.35;;;18.10;52.10;;;;;;4833636;29;20188;-71
2021/04/03 08:21:48;;;;;;;5.68;2.10;;;18.10;52.10;;;;;;4848627;29;20173;-67
2021/04/03 08:24:14;;;;;;;4.57;1.98;;;18.00;52.10;;;;;;4880656;29;20185;-69
2021/04/03 08:26:40;;;;;;;7.28;2.65;;;18.00;52.10;;;;;;4848466;29;20216;-68
2021/04/03 08:29:07;;;;;;;4.57;1.80;;;18.00;52.20;;;;;;4848254;29;20264;-69
2021/04/03 08:31:34;;;;;;;5.45;2.10;;;18.00;52.20;;;;;;4848488;29;20174;-70
2021/04/03 08:34:06;;;;;;;5.93;2.20;;;18.00;52.20;;;;;;4863912;29;20253;-79
2021/04/03 08:36:33;;;;;;;3.85;1.88;;;18.00;52.20;;;;;;4863133;29;20174;-71
2021/04/03 08:39:02;;;;;;;4.30;2.00;;;18.00;52.20;;;;;;4872788;29;20204;-70
2021/04/03 08:41:28;;;;;;;7.05;2.10;;;18.00;52.30;;;;;;4855673;29;20169;-71
2021/04/03 08:43:54;;;;;;;6.35;2.17;;;18.00;52.30;;;;;;4856817;29;20529;-73
2021/04/03 08:46:20;;;;;;;6.20;2.08;;;18.00;52.30;;;;;;4873050;29;20201;-75
2021/04/03 08:48:53;;;;;;;5.85;2.10;;;18.00;52.20;;;;;;4890332;29;20688;-67
2021/04/03 08:51:20;;;;;;;5.30;1.67;;;18.00;52.30;;;;;;4866744;29;20185;-70
2021/04/03 08:53:47;;;;;;;4.85;1.88;;;18.20;52.30;;;;;;4882011;29;20188;-69
2021/04/03 08:56:27;;;;;;;5.45;2.20;;;18.20;52.20;;;;;;4881597;29;20160;-69
2021/04/03 08:58:53;;;;;;;5.38;2.17;;;18.40;52.10;;;;;;4883011;29;20291;-72
2021/04/03 09:01:22;;;;;;;6.10;1.67;;;18.40;52.20;;;;;;4882100;29;20242;-69
2021/04/03 09:03:51;;;;;;;6.05;1.67;;;18.60;51.90;;;;;;4881275;29;20212;-68
2021/04/03 09:06:16;;;;;;;4.75;2.13;;;18.80;51.60;;;;;;4867280;29;20578;-75
2021/04/03 09:08:42;;;;;;;3.58;1.80;;;19.00;51.30;;;;;;4878815;29;20224;-68
2021/04/03 09:11:07;;;;;;;5.72;2.08;;;19.20;51.00;;;;;;4881356;29;20180;-74
2021/04/03 09:13:36;;;;;;;4.32;1.85;;;19.50;50.40;;;;;;4898343;29;20184;-75
2021/04/03 09:16:14;;;;;;;5.05;1.77;;;19.80;49.80;;;;;;4866301;29;20200;-76
2021/04/03 09:18:43;;;;;;;4.18;1.90;;;20.10;49.40;;;;;;4880887;29;20724;-77
2021/04/03 09:21:29;;;;;;;4.68;1.75;;;20.20;49.30;;;;;;4866549;29;20271;-70
2021/04/03 09:23:54;;;;;;;3.45;1.70;;;20.30;49.10;;;;;;4880378;29;20215;-70
2021/04/03 09:26:33;;;;;;;2.97;1.45;;;20.30;49.10;;;;;;4898315;29;20204;-70
2021/04/03 09:29:09;;;;;;;5.05;1.83;;;20.30;49.20;;;;;;4881493;29;20216;-76
2021/04/03 09:31:42;;;;;;;2.80;1.42;;;20.30;49.20;;;;;;4881277;29;20180;-72
2021/04/03 09:34:08;;;;;;;4.75;2.70;;;20.40;49.10;;;;;;4881897;29;20176;-75
2021/04/03 09:36:47;;;;;;;4.30;1.73;;;20.40;49.20;;;;;;4865840;29;20177;-73
2021/04/03 09:39:17;;;;;;;3.55;1.83;;;20.50;49.10;;;;;;4865498;29;20535;-75
2021/04/03 09:41:50;;;;;;;3.08;1.70;;;20.40;49.10;;;;;;4865687;29;20243;-73
2021/04/03 09:44:16;;;;;;;2.92;1.50;;;20.40;49.40;;;;;;4881314;29;20633;-74
2021/04/03 09:46:42;;;;;;;4.10;1.88;;;20.30;49.40;;;;;;4880434;29;20323;-71
2021/04/03 09:49:08;;;;;;;4.32;1.65;;;20.30;49.70;;;;;;4881034;29;20215;-79
2021/04/03 09:51:34;;;;;;;3.17;1.85;;;20.20;49.90;;;;;;4897699;29;20177;-80
2021/04/03 09:54:00;;;;;;;4.90;2.08;;;20.20;49.90;;;;;;4879890;29;20587;-75
2021/04/03 09:56:25;;;;;;;3.10;1.65;;;20.20;49.90;;;;;;4881204;29;20175;-75
2021/04/03 09:58:53;;;;;;;5.70;1.70;;;20.10;50.10;;;;;;4897816;29;20259;-67
2021/04/03 10:01:19;;;;;;;3.90;1.92;;;20.00;50.90;;;;;;4897306;29;20324;-69
2021/04/03 10:03:44;;;;;;;3.33;1.85;;;19.90;50.50;;;;;;4897946;29;20309;-76
2021/04/03 10:06:10;;;;;;;4.68;1.70;;;19.80;50.70;;;;;;4880509;29;20216;-70
2021/04/03 10:08:35;;;;;;;3.53;1.70;;;19.80;50.80;;;;;;4897126;29;20236;-69
2021/04/03 10:11:01;;;;;;;3.20;1.77;;;19.70;50.80;;;;;;4893497;29;20173;-70
2021/04/03 10:13:26;;;;;;;4.60;2.03;;;19.60;51.40;;;;;;4854096;29;20202;-70
2021/04/03 10:15:52;;;;;;;6.50;1.70;;;19.60;50.80;;;;;;4871966;29;20237;-70
2021/04/03 10:18:18;;;;;;;5.72;2.08;;;19.50;50.90;;;;;;4885625;29;20177;-70
2021/04/03 10:20:44;;;;;;;5.00;1.77;;;19.40;51.00;;;;;;4887454;29;20177;-69
2021/04/03 10:23:10;;;;;;;4.80;2.05;;;19.30;51.10;;;;;;4856043;29;20177;-70
2021/04/03 10:25:36;;;;;;;5.85;1.92;;;19.40;51.00;;;;;;4886438;29;20180;-70
2021/04/03 10:28:01;;;;;;;5.40;2.08;;;19.40;50.80;;;;;;4886899;29;20580;-70
2021/04/03 10:30:27;;;;;;;6.63;2.53;;;19.50;50.80;;;;;;4870975;29;20185;-70
2021/04/03 10:32:52;;;;;;;3.90;1.70;;;19.40;50.70;;;;;;4854938;29;20551;-69
2021/04/03 10:35:18;;;;;;;5.72;2.03;;;19.40;50.80;;;;;;4857769;29;20176;-71
2021/04/03 10:37:44;;;;;;;6.10;2.28;;;19.60;50.70;;;;;;4886143;29;20177;-71
2021/04/03 10:40:09;;;;;;;3.35;2.25;;;19.50;51.20;;;;;;4869909;29;20191;-69
2021/04/03 10:42:35;;;;;;;4.88;1.90;;;19.50;50.50;;;;;;4869835;29;20173;-69
2021/04/03 10:45:01;;;;;;;3.97;1.88;;;19.40;50.70;;;;;;4868864;29;20188;-72
2021/04/03 10:47:27;;;;;;;5.30;1.83;;;19.40;50.80;;;;;;4886279;29;20200;-69
2021/04/03 10:49:53;;;;;;;5.10;2.25;;;19.40;51.00;;;;;;4870708;29;20176;-68
2021/04/03 10:52:20;;;;;;;3.70;2.35;;;19.40;50.80;;;;;;4886289;29;20262;-69
2021/04/03 10:54:45;;;;;;;4.93;2.22;;;19.50;50.80;;;;;;4889141;29;20172;-68
2021/04/03 10:57:11;;;;;;;5.38;1.83;;;19.60;50.80;;;;;;4870106;29;20642;-66
2021/04/03 10:59:37;;;;;;;6.28;2.13;;;19.60;50.60;;;;;;4869384;29;20181;-69
2021/04/03 11:02:02;;;;;;;5.90;2.13;;;19.60;50.50;;;;;;4886472;29;20547;-73
2021/04/03 11:04:28;;;;;;;4.75;2.00;;;19.60;50.70;;;;;;4895475;29;20197;-71
2021/04/03 11:06:54;;;;;;;4.75;1.85;;;19.50;50.80;;;;;;4883900;29;20207;-77
2021/04/03 11:09:19;;;;;;;4.47;1.73;;;19.50;50.80;;;;;;4899961;29;20258;-69
2021/04/03 11:11:45;;;;;;;4.60;1.95;;;19.50;50.70;;;;;;4868471;29;20643;-69
2021/04/03 11:14:10;;;;;;;3.53;1.92;;;19.60;50.70;;;;;;4900577;29;20177;-70
2021/04/03 11:16:36;;;;;;;3.20;2.13;;;19.60;50.70;;;;;;4899851;29;20535;-77
2021/04/03 11:19:02;;;;;;;3.83;2.35;;;19.60;50.70;;;;;;4900475;29;20169;-74
2021/04/03 11:21:27;;;;;;;2.78;1.60;;;19.60;50.70;;;;;;4883798;29;20173;-77
2021/04/03 11:23:53;;;;;;;6.07;1.95;;;19.70;50.70;;;;;;4883125;29;20188;-77
2021/04/03 11:26:18;;;;;;;4.97;1.88;;;19.70;50.70;;;;;;4883680;29;20287;-70
2021/04/03 11:28:44;;;;;;;3.50;1.48;;;19.70;50.70;;;;;;4868138;29;20200;-70
2021/04/03 11:31:09;;;;;;;4.05;1.98;;;19.80;51.10;;;;;;4882629;29;20593;-76
2021/04/03 11:33:35;;;;;;;2.67;1.52;;;19.70;50.60;;;;;;4883195;29;20181;-74
2021/04/03 11:36:01;;;;;;;5.00;1.95;;;19.70;50.70;;;;;;4900194;29;20692;-72
2021/04/03 11:38:26;;;;;;;5.80;2.08;;;19.70;50.60;;;;;;4882550;29;20181;-71
2021/04/03 11:40:52;;;;;;;5.88;2.22;;;19.70;50.60;;;;;;4867772;29;20652;-71
2021/04/03 11:43:18;;;;;;;6.65;2.10;;;19.70;50.70;;;;;;4867824;29;20221;-68
2021/04/03 11:45:44;;;;;;;3.92;1.70;;;19.80;50.60;;;;;;4882882;29;20304;-73
2021/04/03 11:48:09;;;;;;;6.28;2.28;;;19.90;50.60;;;;;;4867804;29;20629;-68
2021/04/03 11:50:37;;;;;;;4.00;2.13;;;19.80;50.50;;;;;;4882970;29;20184;-73
2021/04/03 11:53:02;;;;;;;5.38;2.15;;;19.80;50.70;;;;;;4882557;29;20645;-75
2021/04/03 11:55:28;;;;;;;2.60;1.50;;;19.80;50.70;;;;;;4882597;29;20176;-74
2021/04/03 11:57:54;;;;;;;7.55;2.25;;;19.70;51.30;;;;;;4867748;29;20275;-77
2021/04/03 12:00:20;;;;;;;3.53;2.00;;;19.70;51.40;;;;;;4866793;29;20180;-68
2021/04/03 12:02:46;;;;;;;3.92;1.65;;;19.70;50.70;;;;;;4899652;29;20173;-75
2021/04/03 12:05:12;;;;;;;3.42;1.90;;;19.70;50.60;;;;;;4882803;29;20176;-74
2021/04/03 12:07:38;;;;;;;4.03;2.20;;;19.70;50.70;;;;;;4902298;29;20314;-71
2021/04/03 12:10:05;;;;;;;6.25;2.10;;;19.70;50.60;;;;;;4898527;29;20728;-73
2021/04/03 12:12:30;;;;;;;3.35;1.90;;;19.70;50.60;;;;;;4898341;29;20181;-71
2021/04/03 12:14:56;;;;;;;3.40;1.95;;;19.80;50.50;;;;;;4897763;29;20263;-72
2021/04/03 12:17:22;;;;;;;3.28;1.70;;;19.80;50.50;;;;;;4897476;29;20228;-71
2021/04/03 12:19:47;;;;;;;3.58;1.77;;;19.70;50.60;;;;;;4898836;29;20181;-71
2021/04/03 12:22:13;;;;;;;2.28;1.42;;;19.60;50.60;;;;;;4899460;29;20642;-72
2021/04/03 12:24:39;;;;;;;4.18;2.38;;;19.60;50.80;;;;;;4898090;29;20176;-73
2021/04/03 12:27:05;;;;;;;4.45;1.67;;;19.60;50.60;;;;;;4898751;29;20291;-76
2021/04/03 12:29:31;;;;;;;2.70;1.70;;;19.70;50.60;;;;;;4897878;29;20208;-73
2021/04/03 12:31:56;;;;;;;4.35;2.05;;;19.70;50.50;;;;;;4898003;29;20594;-75
2021/04/03 12:34:22;;;;;;;3.40;1.85;;;19.70;50.40;;;;;;4898344;29;20177;-72
2021/04/03 12:36:48;;;;;;;3.28;1.55;;;19.80;50.30;;;;;;4899126;29;20216;-71
2021/04/03 12:39:13;;;;;;;4.07;2.25;;;19.80;50.30;;;;;;4882442;29;20184;-73
2021/04/03 12:41:39;;;;;;;3.75;2.08;;;19.80;50.20;;;;;;4896931;29;20184;-71
2021/04/03 12:44:04;;;;;;;4.00;1.88;;;19.80;50.30;;;;;;4898950;29;20271;-75
2021/04/03 12:46:30;;;;;;;3.33;1.40;;;19.80;50.20;;;;;;4881932;29;20208;-70
2021/04/03 12:48:56;;;;;;;4.03;1.92;;;19.70;50.30;;;;;;4898234;29;20168;-71